Time;durP1;ratioP1;P1;durP2;ratioP2;P2;SDS_P1;SDS_P2;PMS_P1;PMS_P2;Temp;Humidity;BMP_temperature;BMP_pressure;BME280_temperature;BME280_humidity;BME280_pressure;Samples;Min_cycle;Max_cycle;Signal;HPM_P1;HPM_P2
2022/06/21 00:00:59;;;;;;;15.67;14.07;;;;;;;18.56;100.00;98969.94;5090864;28;20249;-80
2022/06/21 00:03:27;;;;;;;15.00;13.60;;;;;;;18.64;100.00;98972.81;5095498;28;20644;-82
2022/06/21 00:05:54;;;;;;;14.80;13.40;;;;;;;18.55;100.00;98971.03;5096152;27;20238;-82
2022/06/21 00:08:21;;;;;;;15.10;13.70;;;;;;;18.44;100.00;98981.13;5099535;28;20269;-82
2022/06/21 00:10:49;;;;;;;15.13;13.57;;;;;;;18.54;100.00;98980.25;5117203;27;20327;-81
2022/06/21 00:13:19;;;;;;;15.63;14.10;;;;;;;18.48;100.00;98969.41;5096675;28;20296;-81
2022/06/21 00:15:47;;;;;;;15.97;14.33;;;;;;;18.44;100.00;98967.56;5093801;28;20279;-82
2022/06/21 00:18:18;;;;;;;15.87;14.27;;;;;;;18.45;100.00;98964.56;5096067;28;20224;-83
2022/06/21 00:20:45;;;;;;;17.40;14.23;;;;;;;18.39;100.00;98975.75;5098863;28;20237;-81
2022/06/21 00:23:21;;;;;;;15.63;13.90;;;;;;;18.43;100.00;98991.16;5096511;28;20287;-82
2022/06/21 00:25:48;;;;;;;17.07;14.60;;;;;;;18.46;100.00;98997.94;5077837;28;20281;-82
2022/06/21 00:28:16;;;;;;;15.23;13.73;;;;;;;18.56;100.00;98997.88;5118981;27;20314;-82
2022/06/21 00:30:44;;;;;;;18.17;14.80;;;;;;;18.65;100.00;99007.00;5095636;27;20574;-82
2022/06/21 00:33:15;;;;;;;15.73;14.33;;;;;;;18.65;100.00;99012.44;5097150;27;20235;-82
2022/06/21 00:35:44;;;;;;;15.70;14.10;;;;;;;18.82;100.00;99004.63;5085249;27;20215;-83
2022/06/21 00:38:12;;;;;;;16.00;14.60;;;;;;;18.97;100.00;99005.56;5112414;27;20233;-83
2022/06/21 00:40:39;;;;;;;15.37;13.87;;;;;;;18.92;100.00;98998.28;5112207;28;20243;-82
2022/06/21 00:43:12;;;;;;;16.77;14.43;;;;;;;19.06;100.00;98998.41;5087869;28;20240;-82
2022/06/21 00:45:41;;;;;;;15.50;13.90;;;;;;;18.84;100.00;98998.94;5114318;27;20645;-82
2022/06/21 00:48:18;;;;;;;15.93;14.30;;;;;;;18.94;100.00;99003.44;5090207;28;20241;-82
2022/06/21 00:50:55;;;;;;;16.70;15.10;;;;;;;18.89;100.00;99002.41;5083634;28;20232;-82
2022/06/21 00:53:34;;;;;;;15.57;14.17;;;;;;;18.92;100.00;98995.56;5072394;28;20263;-83
2022/06/21 00:56:09;;;;;;;16.50;15.00;;;;;;;18.92;100.00;99012.66;5087367;28;20234;-81
2022/06/21 00:58:35;;;;;;;17.37;15.57;;;;;;;18.97;100.00;99011.00;5089146;28;20238;-83
2022/06/21 01:01:03;;;;;;;16.70;15.10;;;;;;;18.97;100.00;99006.38;5092905;28;20234;-82
2022/06/21 01:03:35;;;;;;;16.83;15.17;;;;;;;18.84;100.00;99012.50;5093946;28;20219;-83
2022/06/21 01:06:06;;;;;;;16.40;14.37;;;;;;;18.68;100.00;99019.97;5112341;28;20221;-80
2022/06/21 01:08:36;;;;;;;16.20;14.70;;;;;;;18.65;100.00;99034.13;5099877;28;20282;-83
2022/06/21 01:11:09;;;;;;;15.57;14.07;;;;;;;18.67;100.00;99025.69;5095069;28;20254;-83
2022/06/21 01:13:44;;;;;;;12.20;11.13;;;;;;;18.49;100.00;99025.28;5076110;28;20228;-82
2022/06/21 01:16:12;;;;;;;10.60;9.00;;;;;;;18.55;100.00;99038.84;5080381;28;20230;-83
2022/06/21 01:18:39;;;;;;;8.30;7.50;;;;;;;18.30;100.00;99026.28;5096144;28;20248;-82
2022/06/21 01:21:07;;;;;;;8.27;7.47;;;;;;;18.09;100.00;99046.53;5111122;28;20236;-82
2022/06/21 01:24:08;;;;;;;9.20;8.30;;;;;;;18.20;100.00;99034.50;5068150;28;20322;-82
2022/06/21 01:26:48;;;;;;;9.77;8.90;;;;;;;17.95;100.00;99040.94;5108586;28;20225;-82
2022/06/21 01:29:27;;;;;;;10.63;9.53;;;;;;;18.07;100.00;99040.56;5105160;28;20238;-80
2022/06/21 01:32:03;;;;;;;10.33;9.40;;;;;;;17.92;100.00;99041.47;5099262;28;20236;-81
2022/06/21 01:34:29;;;;;;;11.30;10.20;;;;;;;17.98;100.00;99029.50;5098009;28;20284;-81
2022/06/21 01:37:08;;;;;;;11.23;10.07;;;;;;;17.92;100.00;99047.69;5099120;28;20599;-82
2022/06/21 01:39:46;;;;;;;11.87;10.77;;;;;;;17.84;100.00;99047.50;5077307;28;20280;-82
2022/06/21 01:42:22;;;;;;;12.97;11.07;;;;;;;17.73;100.00;99043.25;5102937;28;20226;-82
2022/06/21 01:44:52;;;;;;;11.07;9.80;;;;;;;17.61;100.00;99038.16;5086888;28;20235;-81
2022/06/21 01:47:23;;;;;;;10.87;9.87;;;;;;;17.59;100.00;99064.69;5090625;28;22132;-83
2022/06/21 01:49:53;;;;;;;11.63;10.50;;;;;;;17.47;100.00;99058.78;5083593;28;20236;-82
2022/06/21 01:52:23;;;;;;;11.47;10.27;;;;;;;17.46;100.00;99041.72;5079348;28;20223;-82
2022/06/21 01:55:01;;;;;;;11.83;9.83;;;;;;;17.52;100.00;99037.91;5097537;28;20227;-83
2022/06/21 01:57:29;;;;;;;8.70;7.97;;;;;;;17.42;100.00;99045.25;5092673;27;20283;-82
2022/06/21 01:59:58;;;;;;;9.30;8.50;;;;;;;17.44;100.00;99057.44;5109397;28;20226;-82
2022/06/21 02:02:41;;;;;;;7.40;6.80;;;;;;;17.41;100.00;99035.50;5074448;28;20227;-82
2022/06/21 02:05:16;;;;;;;7.10;6.43;;;;;;;17.42;100.00;99047.97;5101804;27;20699;-83
2022/06/21 02:07:46;;;;;;;7.17;5.70;;;;;;;17.48;100.00;99052.28;5107830;27;20233;-81
2022/06/21 02:10:28;;;;;;;5.63;5.03;;;;;;;17.33;100.00;99047.75;5097104;28;20663;-81
2022/06/21 02:13:23;;;;;;;5.70;5.30;;;;;;;17.33;100.00;99053.16;5092306;28;20242;-81
2022/06/21 02:15:54;;;;;;;5.47;4.90;;;;;;;17.12;100.00;99057.81;5099800;27;20219;-82
2022/06/21 02:18:22;;;;;;;5.10;4.70;;;;;;;17.14;100.00;99066.50;5099910;27;20231;-81
2022/06/21 02:21:03;;;;;;;5.27;4.77;;;;;;;17.08;100.00;99062.16;5090947;28;20231;-82
2022/06/21 02:23:30;;;;;;;5.30;4.90;;;;;;;16.92;100.00;99068.72;5088744;28;20611;-82
2022/06/21 02:25:57;;;;;;;5.67;5.17;;;;;;;16.97;100.00;99078.72;5092616;28;20251;-82
2022/06/21 02:28:28;;;;;;;5.13;4.70;;;;;;;17.07;100.00;99089.53;5079957;27;20715;-81
2022/06/21 02:30:57;;;;;;;4.77;4.37;;;;;;;16.88;100.00;99080.38;5116758;27;20246;-82
2022/06/21 02:33:28;;;;;;;4.93;4.07;;;;;;;16.93;100.00;99083.88;5090236;27;20226;-82
2022/06/21 02:36:01;;;;;;;4.13;3.83;;;;;;;16.96;100.00;99068.97;5077735;28;20227;-81
2022/06/21 02:38:42;;;;;;;3.30;3.10;;;;;;;16.85;100.00;99081.72;5100887;28;20273;-81
2022/06/21 02:41:24;;;;;;;3.70;3.40;;;;;;;16.86;100.00;99071.69;5115418;28;20227;-81
2022/06/21 02:43:55;;;;;;;3.50;3.30;;;;;;;16.66;100.00;99080.66;5120816;28;20296;-81
2022/06/21 02:46:26;;;;;;;3.20;3.00;;;;;;;16.67;100.00;99079.56;5116673;28;20247;-81
2022/06/21 02:49:15;;;;;;;2.77;2.60;;;;;;;16.58;100.00;99081.22;5114800;28;20695;-81
2022/06/21 02:51:47;;;;;;;4.00;2.90;;;;;;;16.72;100.00;99085.78;5088988;28;20234;-80
2022/06/21 02:54:19;;;;;;;2.90;2.70;;;;;;;16.63;100.00;99087.44;5113613;28;20738;-83
2022/06/21 02:56:50;;;;;;;2.50;2.37;;;;;;;16.70;100.00;99089.88;5132905;27;20232;-81
2022/06/21 02:59:17;;;;;;;2.50;2.30;;;;;;;16.64;100.00;99101.75;5123173;28;20299;-81
2022/06/21 03:01:51;;;;;;;2.40;2.20;;;;;;;16.58;100.00;99097.44;5098671;28;20243;-81
2022/06/21 03:04:20;;;;;;;2.10;2.00;;;;;;;16.53;100.00;99095.50;5111929;28;20228;-82
2022/06/21 03:06:48;;;;;;;2.50;2.30;;;;;;;16.51;100.00;99100.41;5115424;28;20247;-82
2022/06/21 03:09:22;;;;;;;1.93;1.83;;;;;;;16.56;100.00;99102.28;5096463;28;20299;-82
2022/06/21 03:11:57;;;;;;;2.80;1.90;;;;;;;16.54;100.00;99104.44;5099904;28;20226;-82
2022/06/21 03:14:27;;;;;;;1.90;1.80;;;;;;;16.38;100.00;99106.31;5111597;28;20238;-83
2022/06/21 03:16:56;;;;;;;4.07;1.87;;;;;;;16.30;100.00;99117.69;5094181;28;20291;-83
2022/06/21 03:19:31;;;;;;;2.40;1.90;;;;;;;16.44;100.00;99126.06;5112956;28;20285;-84
2022/06/21 03:22:03;;;;;;;2.00;1.90;;;;;;;16.40;100.00;99125.78;5091680;28;20299;-79
2022/06/21 03:24:33;;;;;;;1.63;1.53;;;;;;;16.29;100.00;99132.25;5123651;27;20230;-83
2022/06/21 03:27:10;;;;;;;2.90;1.57;;;;;;;16.21;100.00;99139.03;5134144;28;20234;-84
2022/06/21 03:29:38;;;;;;;1.50;1.40;;;;;;;16.21;100.00;99143.59;5119193;28;20234;-83
2022/06/21 03:32:05;;;;;;;2.27;1.50;;;;;;;16.12;100.00;99143.31;5107233;28;20228;-83
2022/06/21 03:34:35;;;;;;;1.87;1.30;;;;;;;16.06;100.00;99149.78;5136977;28;20227;-82
2022/06/21 03:37:05;;;;;;;1.27;1.17;;;;;;;16.10;100.00;99142.78;5114913;28;20236;-83
2022/06/21 03:42:20;;;;;;;1.67;0.93;;;;;;;16.02;100.00;99159.50;5131568;27;20229;-82
2022/06/21 03:44:55;;;;;;;1.10;1.00;;;;;;;15.97;100.00;99156.78;5115978;27;20245;-81
2022/06/21 03:47:31;;;;;;;3.33;1.30;;;;;;;15.84;100.00;99151.91;5078583;28;20229;-82
2022/06/21 03:50:03;;;;;;;1.57;1.10;;;;;;;15.94;100.00;99154.63;5095818;28;20277;-82
2022/06/21 03:52:45;;;;;;;1.17;1.07;;;;;;;15.88;100.00;99158.38;5076591;28;20242;-82
2022/06/21 03:55:21;;;;;;;1.80;1.40;;;;;;;15.98;100.00;99154.91;5075860;28;20223;-82
2022/06/21 04:01:05;;;;;;;2.17;1.10;;;;;;;15.90;100.00;99163.53;5088964;28;20222;-83
2022/06/21 04:03:52;;;;;;;1.53;1.03;;;;;;;15.88;100.00;99162.97;5094265;28;20250;-82
2022/06/21 04:06:46;;;;;;;1.53;1.17;;;;;;;15.88;100.00;99174.59;5090862;28;20240;-83
2022/06/21 04:12:47;;;;;;;2.17;1.30;;;;;;;15.93;100.00;99182.72;5103108;28;20228;-82
2022/06/21 04:15:49;;;;;;;2.30;1.10;;;;;;;16.02;100.00;99183.00;5095547;28;20262;-83
2022/06/21 04:18:21;;;;;;;1.40;1.30;;;;;;;15.94;100.00;99183.53;5095903;28;20243;-83
2022/06/21 04:21:17;;;;;;;2.07;1.20;;;;;;;15.91;100.00;99184.84;5085823;28;20239;-83
2022/06/21 04:24:03;;;;;;;5.03;1.47;;;;;;;15.82;100.00;99192.66;5094773;28;20282;-82
2022/06/21 04:26:56;;;;;;;2.67;1.50;;;;;;;15.82;100.00;99184.56;5065780;28;20209;-82
2022/06/21 04:29:42;;;;;;;2.07;1.30;;;;;;;16.12;100.00;99183.88;5096310;28;20191;-82
2022/06/21 04:32:32;;;;;;;3.93;1.30;;;;;;;16.07;100.00;99197.34;5072630;28;20248;-82
2022/06/21 04:35:08;;;;;;;1.57;1.33;;;;;;;15.98;100.00;99200.84;5081492;28;20233;-83
2022/06/21 04:37:54;;;;;;;2.67;1.33;;;;;;;16.04;100.00;99200.59;5067145;28;20285;-80
2022/06/21 04:40:27;;;;;;;2.20;1.30;;;;;;;16.19;100.00;99191.72;5083397;28;20232;-81
2022/06/21 04:43:08;;;;;;;3.73;1.30;;;;;;;16.48;100.00;99189.34;5073629;28;20233;-80
2022/06/21 04:46:05;;;;;;;3.37;1.33;;;;;;;16.65;100.00;99182.66;5090727;28;20235;-80
2022/06/21 04:48:43;;;;;;;2.33;1.23;;;;;;;16.50;100.00;99204.22;5088149;28;20212;-81
2022/06/21 04:51:58;;;;;;;1.57;1.47;;;;;;;16.49;100.00;99199.06;5077528;28;20236;-80
2022/06/21 04:54:27;;;;;;;1.80;1.50;;;;;;;16.52;100.00;99218.28;5053331;28;20236;-80
2022/06/21 04:57:16;;;;;;;2.83;1.70;;;;;;;16.37;100.00;99212.03;5081401;28;20251;-81
2022/06/21 04:59:55;;;;;;;1.33;1.20;;;;;;;16.47;100.00;99218.25;5091107;28;20220;-80
2022/06/21 05:02:57;;;;;;;2.47;1.33;;;;;;;16.42;100.00;99210.16;5079489;28;20243;-81
2022/06/21 05:05:34;;;;;;;1.87;1.30;;;;;;;16.43;100.00;99205.53;5099446;28;20227;-80
2022/06/21 05:08:07;;;;;;;3.13;1.20;;;;;;;16.37;100.00;99212.84;5092393;28;20236;-81
2022/06/21 05:10:41;;;;;;;1.50;1.20;;;;;;;16.60;100.00;99201.56;5114692;28;20228;-81
2022/06/21 05:13:20;;;;;;;2.07;1.20;;;;;;;16.87;100.00;99206.72;5081317;28;20607;-80
2022/06/21 05:15:48;;;;;;;2.37;1.20;;;;;;;16.66;100.00;99214.00;5084336;28;20236;-81
2022/06/21 05:18:19;;;;;;;2.20;1.10;;;;;;;16.70;100.00;99196.13;5090010;28;20248;-80
2022/06/21 05:20:50;;;;;;;2.37;1.30;;;;;;;16.85;100.00;99202.63;5094585;28;20282;-81
2022/06/21 05:23:17;;;;;;;1.97;1.40;;;;;;;16.91;100.00;99221.31;5084345;28;20260;-81
2022/06/21 05:25:45;;;;;;;4.33;1.53;;;;;;;17.12;100.00;99216.72;5076522;28;20236;-82
2022/06/21 05:28:21;;;;;;;3.83;1.40;;;;;;;17.45;100.00;99221.53;5078362;28;20292;-82
2022/06/21 05:30:52;;;;;;;1.70;1.17;;;;;;;17.67;100.00;99226.66;5080385;28;20593;-82
2022/06/21 05:33:41;;;;;;;2.63;1.20;;;;;;;17.59;100.00;99216.38;5078406;28;20599;-82
2022/06/21 05:36:15;;;;;;;2.70;1.30;;;;;;;17.85;96.56;99236.91;5078547;28;20225;-81
2022/06/21 05:38:50;;;;;;;2.00;1.40;;;;;;;17.68;100.00;99227.50;5074390;28;20249;-81
2022/06/21 05:41:32;;;;;;;1.30;1.20;;;;;;;17.94;100.00;99226.31;5077426;28;20255;-82
2022/06/21 05:44:01;;;;;;;1.43;1.30;;;;;;;17.98;100.00;99230.88;5083573;28;20248;-82
2022/06/21 05:46:31;;;;;;;2.00;1.30;;;;;;;18.07;100.00;99233.84;5085564;27;20233;-83
2022/06/21 05:48:58;;;;;;;1.77;1.37;;;;;;;18.25;94.77;99226.97;5106330;27;20292;-82
2022/06/21 05:51:28;;;;;;;1.77;1.43;;;;;;;18.21;93.41;99248.41;5112329;27;20246;-82
2022/06/21 05:54:16;;;;;;;2.40;1.47;;;;;;;18.52;89.42;99238.22;5082227;27;20242;-80
2022/06/21 05:56:44;;;;;;;3.20;1.20;;;;;;;18.76;90.09;99251.91;5096285;28;20284;-83
2022/06/21 05:59:18;;;;;;;1.70;1.27;;;;;;;18.88;79.13;99242.34;5083284;28;20255;-81
2022/06/21 06:02:08;;;;;;;1.43;1.00;;;;;;;18.48;79.00;99246.09;5097138;28;20265;-82
2022/06/21 06:04:46;;;;;;;2.20;1.30;;;;;;;18.81;79.22;99257.31;5113807;27;20708;-82
2022/06/21 06:07:21;;;;;;;1.93;1.00;;;;;;;18.68;79.39;99252.50;5084441;27;20717;-81
2022/06/21 06:09:50;;;;;;;2.37;1.20;;;;;;;18.62;83.76;99250.91;5083609;27;20233;-82
2022/06/21 06:12:20;;;;;;;2.20;1.20;;;;;;;19.01;83.83;99250.91;5116652;27;20239;-84
2022/06/21 06:14:58;;;;;;;2.13;1.10;;;;;;;18.94;78.58;99256.69;5100368;27;20241;-81
2022/06/21 06:17:52;;;;;;;1.57;1.10;;;;;;;18.86;76.79;99249.13;5111096;28;20232;-81
2022/06/21 06:20:32;;;;;;;1.10;1.00;;;;;;;18.77;74.56;99246.22;5113443;27;20254;-82
2022/06/21 06:23:03;;;;;;;2.90;1.10;;;;;;;18.66;78.20;99257.44;5102767;27;20231;-82
2022/06/21 06:25:38;;;;;;;1.63;0.97;;;;;;;18.77;79.93;99248.94;5101370;28;20517;-82
2022/06/21 06:28:17;;;;;;;1.33;1.00;;;;;;;18.66;75.79;99252.81;5102654;27;20234;-82
2022/06/21 06:30:51;;;;;;;1.97;1.07;;;;;;;18.80;74.13;99248.34;5112939;28;20235;-82
2022/06/21 06:33:37;;;;;;;2.17;1.10;;;;;;;18.96;73.17;99257.19;5101027;27;20226;-81
2022/06/21 06:36:20;;;;;;;1.60;0.90;;;;;;;19.11;75.37;99251.66;5125014;27;20230;-82
2022/06/21 06:38:47;;;;;;;2.20;1.20;;;;;;;19.05;74.01;99252.78;5111778;27;20231;-83
2022/06/21 06:41:23;;;;;;;1.97;1.10;;;;;;;18.64;73.72;99252.28;5118342;27;20239;-82
2022/06/21 06:43:54;;;;;;;2.00;1.10;;;;;;;18.81;74.21;99246.44;5079388;28;20235;-82
2022/06/21 06:46:29;;;;;;;1.63;1.00;;;;;;;18.84;75.37;99244.00;5075960;28;20598;-83
2022/06/21 06:49:28;;;;;;;1.47;1.00;;;;;;;18.88;76.92;99252.38;5120949;27;20228;-84
2022/06/21 06:52:13;;;;;;;1.77;1.10;;;;;;;19.11;70.77;99257.09;5105155;27;20237;-82
2022/06/21 06:54:49;;;;;;;2.30;1.27;;;;;;;18.92;67.97;99237.16;5122688;27;20235;-83
2022/06/21 06:57:28;;;;;;;2.57;1.17;;;;;;;19.06;67.54;99246.28;5118528;27;20230;-83
2022/06/21 06:59:56;;;;;;;2.70;1.73;;;;;;;19.25;64.17;99249.09;5090080;28;20223;-82
2022/06/21 07:02:45;;;;;;;3.10;1.20;;;;;;;19.44;64.61;99249.22;5089280;27;20629;-84
2022/06/21 07:05:34;;;;;;;3.53;1.23;;;;;;;20.09;60.85;99247.69;5079136;28;20225;-82
2022/06/21 07:08:29;;;;;;;2.17;1.07;;;;;;;20.16;60.25;99248.94;5093478;28;20234;-84
2022/06/21 07:10:57;;;;;;;2.30;1.20;;;;;;;20.43;57.63;99261.97;5095484;27;20230;-84
2022/06/21 07:13:25;;;;;;;2.03;1.40;;;;;;;20.07;54.77;99252.59;5080661;28;20251;-83
2022/06/21 07:15:55;;;;;;;2.77;1.30;;;;;;;20.24;55.26;99250.22;5120477;27;20259;-84
2022/06/21 07:18:32;;;;;;;2.67;1.23;;;;;;;20.16;57.61;99248.13;5075106;27;20230;-85
2022/06/21 07:21:04;;;;;;;2.87;1.10;;;;;;;20.07;57.30;99252.59;5114605;27;20740;-85
2022/06/21 07:23:31;;;;;;;1.60;1.20;;;;;;;20.33;55.84;99247.69;5110811;27;20319;-84
2022/06/21 07:26:08;;;;;;;2.20;1.40;;;;;;;20.43;59.13;99242.13;5094204;27;20219;-85
2022/06/21 07:28:48;;;;;;;2.53;1.33;;;;;;;20.49;57.35;99246.38;5112046;27;20282;-85
2022/06/21 07:31:22;;;;;;;2.83;1.23;;;;;;;20.40;59.42;99248.94;5073724;28;20235;-85
2022/06/21 07:34:00;;;;;;;3.20;1.43;;;;;;;20.13;59.66;99235.94;5076687;27;20232;-84
2022/06/21 07:36:36;;;;;;;2.50;1.30;;;;;;;20.65;59.37;99226.81;5110146;27;20759;-84
2022/06/21 07:39:13;;;;;;;4.00;1.80;;;;;;;20.63;57.64;99226.28;5102999;27;20885;-84
2022/06/21 07:41:43;;;;;;;2.00;1.40;;;;;;;20.53;59.28;99231.88;5103069;27;20237;-85
2022/06/21 07:44:34;;;;;;;2.27;1.20;;;;;;;20.81;56.82;99240.97;5078935;28;20251;-84
2022/06/21 07:47:10;;;;;;;1.73;1.30;;;;;;;21.18;55.74;99236.63;5081607;28;20247;-85
2022/06/21 07:49:40;;;;;;;3.23;1.30;;;;;;;20.91;53.79;99235.38;5056523;28;20275;-85
2022/06/21 07:52:15;;;;;;;1.80;1.40;;;;;;;20.98;54.86;99241.28;5071248;28;20456;-83
2022/06/21 07:54:45;;;;;;;5.70;1.40;;;;;;;20.78;53.01;99243.50;5090498;28;20256;-84
2022/06/21 07:57:20;;;;;;;2.43;1.53;;;;;;;20.74;53.98;99237.84;5082586;28;20237;-84
2022/06/21 07:59:50;;;;;;;1.93;1.30;;;;;;;20.87;54.80;99234.38;5094645;28;20717;-85
2022/06/21 08:08:32;;;;;;;2.27;1.30;;;;;;;21.32;54.46;99227.38;5086368;28;20226;-82
2022/06/21 08:11:02;;;;;;;2.43;1.30;;;;;;;21.50;58.42;99233.88;5070364;28;20248;-83
2022/06/21 08:13:29;;;;;;;2.47;1.40;;;;;;;21.40;56.72;99234.06;5087157;28;20735;-85
2022/06/21 08:16:23;;;;;;;3.03;1.40;;;;;;;21.61;55.85;99238.00;5074242;28;20255;-83
2022/06/21 08:19:16;;;;;;;2.10;1.33;;;;;;;21.69;53.30;99234.63;5073853;28;20313;-82
2022/06/21 08:21:46;;;;;;;1.57;1.40;;;;;;;21.87;54.15;99222.81;5079657;28;20229;-82
2022/06/21 08:24:16;;;;;;;4.03;1.70;;;;;;;21.89;53.83;99233.38;5058790;28;20244;-83
2022/06/21 08:26:54;;;;;;;2.10;1.37;;;;;;;22.09;51.93;99216.66;5097497;28;20326;-83
2022/06/21 08:29:28;;;;;;;2.77;1.40;;;;;;;22.04;54.38;99215.94;5072467;28;20285;-83
2022/06/21 08:32:06;;;;;;;2.10;1.30;;;;;;;22.06;53.97;99211.81;5096889;28;20297;-83
2022/06/21 08:34:38;;;;;;;3.17;1.40;;;;;;;21.85;55.53;99205.13;5090789;28;20242;-83
2022/06/21 08:37:10;;;;;;;2.37;1.60;;;;;;;21.74;57.16;99209.16;5089875;28;20255;-84
2022/06/21 08:40:21;;;;;;;2.67;1.80;;;;;;;21.61;54.75;99199.84;5082723;28;20696;-83
2022/06/21 08:43:07;;;;;;;2.10;1.47;;;;;;;21.81;56.49;99210.38;5089509;28;20257;-83
2022/06/21 08:45:45;;;;;;;2.63;1.50;;;;;;;22.07;59.68;99207.94;5088807;28;20227;-83
2022/06/21 08:48:34;;;;;;;2.07;1.50;;;;;;;22.12;57.50;99209.75;5065826;28;20738;-82
2022/06/21 08:51:32;;;;;;;2.97;1.83;;;;;;;22.03;56.69;99206.13;5059955;28;20235;-82
2022/06/21 08:54:33;;;;;;;3.03;1.60;;;;;;;21.89;55.78;99209.66;5066420;28;20233;-83
2022/06/21 08:57:05;;;;;;;3.57;1.40;;;;;;;22.06;54.24;99209.09;5073753;28;20712;-83
2022/06/21 08:59:59;;;;;;;3.27;1.50;;;;;;;22.24;54.72;99213.59;5062591;28;20233;-81
2022/06/21 09:02:35;;;;;;;2.63;1.53;;;;;;;22.21;53.29;99210.69;5073922;28;20266;-80
2022/06/21 09:05:19;;;;;;;2.47;1.60;;;;;;;22.37;53.80;99222.88;5065582;28;20225;-79
2022/06/21 09:08:05;;;;;;;2.70;1.50;;;;;;;22.46;54.01;99228.41;5068091;28;20248;-81
2022/06/21 09:10:53;;;;;;;2.57;1.50;;;;;;;22.64;51.72;99205.59;5088272;28;20230;-80
2022/06/21 09:13:37;;;;;;;2.37;1.63;;;;;;;22.46;51.89;99204.66;5064065;28;20230;-81
2022/06/21 09:16:12;;;;;;;2.53;1.47;;;;;;;22.30;52.73;99206.91;5066075;28;20240;-81
2022/06/21 09:19:03;;;;;;;2.03;1.73;;;;;;;22.12;52.17;99204.31;5051912;28;20693;-83
2022/06/21 09:21:42;;;;;;;3.17;1.60;;;;;;;21.99;52.94;99208.66;5073783;28;20224;-81
2022/06/21 09:24:49;;;;;;;4.27;1.47;;;;;;;22.24;53.57;99196.41;5066679;28;20243;-82
2022/06/21 09:27:45;;;;;;;4.63;1.30;;;;;;;22.16;52.02;99188.97;5058093;28;20233;-82
2022/06/21 09:30:20;;;;;;;4.80;1.33;;;;;;;22.42;49.78;99187.28;5067803;28;20265;-81
2022/06/21 09:32:50;;;;;;;1.77;1.30;;;;;;;22.59;50.35;99192.88;5067525;28;20256;-81
2022/06/21 09:35:29;;;;;;;1.67;1.27;;;;;;;22.25;48.84;99193.41;5069722;28;20309;-82
2022/06/21 09:38:06;;;;;;;1.67;1.23;;;;;;;22.40;50.48;99190.31;5064902;28;20708;-81
2022/06/21 09:40:42;;;;;;;3.77;1.40;;;;;;;22.32;48.24;99188.31;5073440;28;20792;-82
2022/06/21 09:43:28;;;;;;;2.70;1.60;;;;;;;22.33;50.06;99187.19;5067195;28;20755;-82
2022/06/21 09:46:12;;;;;;;3.17;1.30;;;;;;;22.43;49.48;99196.28;5071288;28;20233;-80
2022/06/21 09:49:07;;;;;;;1.77;1.30;;;;;;;22.52;47.50;99195.22;5082132;28;20274;-81
2022/06/21 09:51:47;;;;;;;2.77;1.33;;;;;;;22.71;46.63;99198.63;5071913;28;20235;-82
2022/06/21 09:54:26;;;;;;;3.27;1.50;;;;;;;22.97;48.48;99198.00;5064633;28;20282;-81
2022/06/21 09:57:03;;;;;;;3.33;1.40;;;;;;;22.89;47.45;99194.09;5068857;28;20331;-81
2022/06/21 09:59:58;;;;;;;2.00;1.50;;;;;;;22.80;46.40;99199.50;5063166;28;20224;-81
2022/06/21 10:02:37;;;;;;;2.13;1.30;;;;;;;22.97;47.42;99184.34;5059659;28;20219;-84
2022/06/21 10:05:40;;;;;;;2.57;1.43;;;;;;;23.10;44.47;99195.19;5069286;28;20229;-82
2022/06/21 10:08:32;;;;;;;2.23;1.30;;;;;;;23.25;44.65;99197.53;5066028;28;20282;-82
2022/06/21 10:11:39;;;;;;;1.98;1.20;;;;;;;23.39;47.14;99207.56;5072367;28;20213;-81
2022/06/21 10:14:08;;;;;;;2.25;1.35;;;;;;;23.64;45.32;99205.00;5072295;28;20323;-84
2022/06/21 10:17:03;;;;;;;1.02;0.98;;;;;;;23.56;44.16;99200.28;5070123;28;20267;-81
2022/06/21 10:19:48;;;;;;;2.78;1.08;;;;;;;23.64;41.21;99190.53;5069586;28;20229;-82
2022/06/21 10:22:29;;;;;;;2.03;1.20;;;;;;;23.96;41.35;99201.09;5073317;28;20248;-81
2022/06/21 10:25:17;;;;;;;1.73;1.20;;;;;;;23.75;40.63;99193.78;5079093;28;20220;-80
2022/06/21 10:28:02;;;;;;;4.00;1.40;;;;;;;23.97;38.55;99189.03;5069747;28;20274;-81
2022/06/21 10:30:39;;;;;;;1.77;1.10;;;;;;;24.13;40.70;99192.09;5076490;28;20233;-81
2022/06/21 10:33:16;;;;;;;2.25;1.33;;;;;;;24.23;40.07;99193.75;5055414;28;20241;-81
2022/06/21 10:36:10;;;;;;;3.80;1.27;;;;;;;24.35;39.84;99197.50;5072990;28;20292;-82
2022/06/21 10:39:02;;;;;;;2.33;1.13;;;;;;;24.18;36.91;99202.94;5066615;28;20560;-81
2022/06/21 10:41:32;;;;;;;2.55;1.13;;;;;;;23.88;37.18;99188.19;5066531;28;20717;-82
2022/06/21 10:44:19;;;;;;;2.45;1.33;;;;;;;24.08;39.09;99198.53;5068123;28;20236;-82
2022/06/21 10:46:49;;;;;;;2.42;1.20;;;;;;;24.04;40.54;99197.56;5081027;28;20242;-81
2022/06/21 10:49:28;;;;;;;2.78;1.15;;;;;;;23.81;41.89;99193.31;5098732;27;20304;-82
2022/06/21 10:52:12;;;;;;;5.03;1.45;;;;;;;23.85;37.63;99196.22;5116397;27;20225;-81
2022/06/21 10:55:01;;;;;;;1.60;1.05;;;;;;;24.02;36.98;99188.88;5094609;27;20231;-81
2022/06/21 10:57:56;;;;;;;2.63;1.08;;;;;;;24.09;36.47;99186.47;5112088;27;20239;-81
2022/06/21 11:03:26;;;;;;;1.75;1.15;;;;;;;24.24;39.63;99198.13;5107935;27;20715;-82
2022/06/21 11:06:09;;;;;;;1.80;0.98;;;;;;;24.25;35.44;99195.06;5094335;28;20742;-80
2022/06/21 11:08:48;;;;;;;1.13;0.90;;;;;;;24.39;35.55;99197.66;5096067;28;20284;-81
2022/06/21 11:11:41;;;;;;;1.55;1.10;;;;;;;24.48;36.31;99187.53;5094057;28;20236;-80
2022/06/21 11:14:29;;;;;;;1.67;0.90;;;;;;;24.51;37.20;99184.94;5112378;27;20249;-84
2022/06/21 11:17:25;;;;;;;1.35;1.00;;;;;;;24.64;37.00;99174.94;5120640;27;20231;-82
2022/06/21 11:20:05;;;;;;;3.55;1.70;;;;;;;24.71;39.66;99188.97;5063499;28;20579;-80
2022/06/21 11:22:45;;;;;;;2.45;1.23;;;;;;;24.55;38.35;99180.44;5099465;28;20235;-80
2022/06/21 11:25:32;;;;;;;1.88;1.33;;;;;;;24.63;35.99;99181.56;5080110;28;20621;-81
2022/06/21 11:28:39;;;;;;;2.58;1.20;;;;;;;24.61;38.72;99186.56;5119244;27;20231;-82
2022/06/21 11:31:20;;;;;;;2.17;1.20;;;;;;;24.87;36.17;99178.38;5067678;27;20234;-81
2022/06/21 11:34:23;;;;;;;2.83;1.20;;;;;;;25.04;35.89;99183.81;5096635;28;20334;-81
2022/06/21 11:36:59;;;;;;;1.77;1.13;;;;;;;25.06;34.34;99178.78;5095734;28;20313;-82
2022/06/21 11:39:41;;;;;;;1.23;1.10;;;;;;;25.01;33.43;99178.19;5118451;27;20321;-84
2022/06/21 11:42:27;;;;;;;1.30;1.17;;;;;;;25.25;34.71;99167.44;5095249;27;20229;-83
2022/06/21 11:45:22;;;;;;;2.13;1.10;;;;;;;25.01;34.10;99184.44;5098227;27;20231;-80
2022/06/21 11:48:10;;;;;;;2.92;1.27;;;;;;;24.93;34.47;99177.84;5078867;27;20246;-81
2022/06/21 11:50:53;;;;;;;2.15;1.20;;;;;;;25.20;35.06;99173.91;5104689;27;20252;-82
2022/06/21 11:53:44;;;;;;;3.22;1.30;;;;;;;25.13;35.62;99165.41;5088907;28;20261;-81
2022/06/21 11:56:34;;;;;;;3.08;1.33;;;;;;;25.10;36.08;99162.53;5106035;28;20845;-81
2022/06/21 11:59:23;;;;;;;2.22;1.25;;;;;;;25.16;34.30;99167.47;5091136;27;20235;-81
2022/06/21 12:02:08;;;;;;;2.25;1.17;;;;;;;25.16;34.99;99170.22;5080500;27;20259;-81
2022/06/21 12:04:46;;;;;;;1.80;0.90;;;;;;;25.46;31.89;99162.88;5102376;27;20749;-82
2022/06/21 12:07:28;;;;;;;2.60;0.85;;;;;;;25.77;31.91;99148.88;5096618;28;20251;-82
2022/06/21 12:09:57;;;;;;;1.88;1.30;;;;;;;25.86;33.17;99147.69;5101175;28;20230;-82
2022/06/21 12:12:33;;;;;;;1.30;1.20;;;;;;;25.91;32.88;99157.69;5079020;27;20227;-81
2022/06/21 12:15:17;;;;;;;2.72;1.60;;;;;;;25.67;32.57;99149.25;5125800;27;20247;-83
2022/06/21 12:17:54;;;;;;;1.20;1.10;;;;;;;25.85;34.32;99140.59;5125734;27;20241;-82
2022/06/21 12:20:29;;;;;;;1.98;1.20;;;;;;;25.93;33.49;99144.44;5109123;27;20712;-82
2022/06/21 12:23:02;;;;;;;2.53;1.25;;;;;;;26.15;32.51;99140.56;5065648;28;20810;-82
2022/06/21 12:25:29;;;;;;;1.58;1.23;;;;;;;26.17;32.74;99132.81;5116013;27;20320;-82
2022/06/21 12:27:59;;;;;;;2.80;1.25;;;;;;;26.54;33.36;99120.09;5090773;28;20714;-82
2022/06/21 12:30:46;;;;;;;2.78;1.20;;;;;;;26.25;33.46;99113.56;5100150;28;20308;-82
2022/06/21 12:33:17;;;;;;;1.95;1.27;;;;;;;26.36;32.59;99121.41;5088490;28;20754;-83
2022/06/21 12:35:43;;;;;;;1.80;1.10;;;;;;;26.22;31.80;99110.69;5081009;28;21171;-83